createdAt,value
2023-10-10T00:01:45.406Z,4.40
2023-10-10T00:04:13.295Z,4.50
2023-10-10T00:06:41.222Z,4.80
2023-10-10T00:09:12.334Z,4.30
2023-10-10T00:11:46.511Z,4.90
2023-10-10T00:14:18.921Z,4.50
2023-10-10T00:16:49.243Z,4.80
2023-10-10T00:19:30.969Z,5.10
2023-10-10T00:21:58.660Z,4.80
2023-10-10T00:24:32.367Z,4.70
2023-10-10T00:27:01.084Z,4.80
2023-10-10T00:29:30.053Z,4.80
2023-10-10T00:32:06.944Z,4.50
2023-10-10T00:34:38.410Z,4.50
2023-10-10T00:37:09.753Z,4.50
2023-10-10T00:39:38.000Z,4.70
2023-10-10T00:42:09.192Z,4.40
2023-10-10T00:44:39.464Z,4.20
2023-10-10T00:47:14.558Z,4.40
2023-10-10T00:49:44.766Z,4.20
2023-10-10T00:52:14.100Z,4.20
2023-10-10T00:54:44.892Z,4.50
2023-10-10T00:57:20.923Z,4.20
2023-10-10T00:59:50.122Z,4.30
2023-10-10T01:02:22.168Z,4.30
2023-10-10T01:04:50.337Z,4.00
2023-10-10T01:07:21.324Z,4.00
2023-10-10T01:09:55.387Z,4.00
2023-10-10T01:12:24.214Z,3.80
2023-10-10T01:14:56.246Z,4.10
2023-10-10T01:17:30.569Z,3.90
2023-10-10T01:20:10.625Z,3.80
2023-10-10T01:22:41.201Z,4.00
2023-10-10T01:25:27.630Z,4.10
2023-10-10T01:27:57.905Z,3.80
2023-10-10T01:30:45.693Z,4.10
2023-10-10T01:33:16.395Z,4.00
2023-10-10T01:35:46.858Z,4.10
2023-10-10T01:38:43.022Z,4.30
2023-10-10T01:41:17.375Z,3.90
2023-10-10T01:43:47.625Z,3.90
2023-10-10T01:46:29.852Z,3.70
2023-10-10T01:49:02.802Z,3.70
2023-10-10T01:51:34.441Z,4.40
2023-10-10T01:54:29.408Z,3.90
2023-10-10T01:56:56.651Z,3.80
2023-10-10T01:59:27.326Z,3.80
2023-10-10T02:01:56.374Z,4.00
2023-10-10T02:04:24.796Z,3.70
2023-10-10T02:06:58.031Z,3.90
2023-10-10T02:09:25.265Z,3.90
2023-10-10T02:11:55.946Z,3.80
2023-10-10T02:14:26.739Z,4.10
2023-10-10T02:16:57.075Z,3.70
2023-10-10T02:19:41.370Z,3.90
2023-10-10T02:22:23.957Z,3.80
2023-10-10T02:25:10.171Z,3.50
2023-10-10T02:27:54.985Z,4.40
2023-10-10T02:30:38.834Z,8.40
2023-10-10T02:33:25.519Z,12.40
2023-10-10T02:35:56.493Z,10.60
2023-10-10T02:38:35.782Z,8.70
2023-10-10T02:41:24.089Z,8.40
2023-10-10T02:43:56.322Z,7.10
2023-10-10T02:46:39.344Z,6.70
2023-10-10T02:49:14.019Z,6.20
2023-10-10T02:51:44.343Z,5.80
2023-10-10T02:54:27.218Z,5.70
2023-10-10T02:57:21.390Z,6.50
2023-10-10T02:59:52.121Z,8.30
2023-10-10T03:02:42.092Z,7.90
2023-10-10T03:06:07.783Z,6.80
2023-10-10T03:08:35.152Z,5.20
2023-10-10T03:11:03.737Z,4.60
2023-10-10T03:13:38.123Z,4.20
2023-10-10T03:16:23.334Z,4.10
2023-10-10T03:19:04.288Z,3.80
2023-10-10T03:21:50.554Z,4.10
2023-10-10T03:24:24.297Z,3.90
2023-10-10T03:29:48.956Z,3.90
2023-10-10T03:32:32.519Z,4.10
2023-10-10T03:35:14.907Z,4.60
2023-10-10T03:37:46.724Z,4.70
2023-10-10T03:40:28.435Z,4.30
2023-10-10T03:43:14.952Z,4.00
2023-10-10T03:46:01.286Z,4.30
2023-10-10T03:48:47.297Z,4.30
2023-10-10T03:51:33.208Z,4.20
2023-10-10T03:54:19.315Z,4.20
2023-10-10T03:57:07.256Z,4.20
2023-10-10T03:59:53.148Z,4.40
2023-10-10T04:02:39.287Z,5.40
2023-10-10T04:05:28.094Z,5.70
2023-10-10T04:08:14.483Z,4.90
2023-10-10T04:11:06.300Z,4.60
2023-10-10T04:13:52.469Z,4.50
2023-10-10T04:16:38.548Z,3.80
2023-10-10T04:19:24.501Z,4.20
2023-10-10T04:22:10.382Z,3.80
2023-10-10T04:24:56.984Z,3.90
2023-10-10T04:27:44.078Z,3.90
2023-10-10T04:30:30.102Z,4.20
2023-10-10T04:33:15.798Z,3.70
2023-10-10T04:36:04.983Z,4.00
2023-10-10T04:38:50.936Z,4.30
2023-10-10T04:41:36.857Z,4.20
2023-10-10T04:44:22.840Z,5.00
2023-10-10T04:47:09.078Z,5.60
2023-10-10T04:49:55.055Z,4.70
2023-10-10T04:52:41.176Z,4.70
2023-10-10T04:55:27.064Z,4.20
2023-10-10T04:58:12.850Z,4.60
2023-10-10T05:00:58.900Z,4.30
2023-10-10T05:03:44.790Z,4.20
2023-10-10T05:06:30.837Z,4.90
2023-10-10T05:09:16.584Z,5.20
2023-10-10T05:12:02.481Z,5.00
2023-10-10T05:14:48.361Z,5.40
2023-10-10T05:17:34.368Z,4.90
2023-10-10T05:20:20.519Z,5.00
2023-10-10T05:23:06.674Z,5.10
2023-10-10T05:25:34.363Z,5.40
2023-10-10T05:28:01.599Z,4.50
2023-10-10T05:30:41.054Z,4.50
2023-10-10T05:33:08.599Z,5.00
2023-10-10T05:35:48.831Z,4.70
2023-10-10T05:38:17.172Z,4.30
2023-10-10T05:40:44.652Z,4.30
2023-10-10T05:43:16.754Z,3.90
2023-10-10T05:45:45.111Z,4.40
2023-10-10T05:48:13.424Z,4.30
2023-10-10T05:50:44.042Z,4.40
2023-10-10T05:53:11.602Z,4.50
2023-10-10T05:55:39.696Z,4.20
2023-10-10T05:58:07.135Z,4.60
2023-10-10T06:00:45.824Z,4.30
2023-10-10T06:03:15.919Z,4.30
2023-10-10T06:05:46.741Z,3.90
2023-10-10T06:08:14.606Z,4.30
2023-10-10T06:10:42.047Z,4.70
2023-10-10T06:13:11.810Z,4.70
2023-10-10T06:15:39.311Z,4.30
2023-10-10T06:18:15.611Z,3.80
2023-10-10T06:20:58.065Z,4.00
2023-10-10T06:23:35.198Z,4.20
2023-10-10T06:26:03.800Z,4.00
2023-10-10T06:28:37.265Z,4.10
2023-10-10T06:31:11.784Z,4.40
2023-10-10T06:33:42.406Z,4.00
2023-10-10T06:36:33.827Z,3.60
2023-10-10T06:39:21.595Z,4.00
2023-10-10T06:41:52.111Z,3.90
2023-10-10T06:44:33.301Z,3.80
2023-10-10T06:47:02.108Z,3.90
2023-10-10T06:49:44.713Z,3.50
2023-10-10T06:52:19.677Z,3.40
2023-10-10T06:54:55.113Z,3.70
2023-10-10T06:57:38.007Z,3.90
2023-10-10T07:00:30.482Z,4.10
2023-10-10T07:02:58.442Z,3.80
2023-10-10T07:05:29.481Z,4.40
2023-10-10T07:08:00.384Z,4.00
2023-10-10T07:10:35.051Z,5.40
2023-10-10T07:13:03.407Z,5.10
2023-10-10T07:15:36.929Z,4.90
2023-10-10T07:18:16.968Z,6.80
2023-10-10T07:21:03.881Z,5.70
2023-10-10T07:23:39.430Z,4.10
2023-10-10T07:26:21.736Z,4.00
2023-10-10T07:28:49.537Z,4.10
2023-10-10T07:31:22.348Z,3.90
2023-10-10T07:34:10.988Z,3.80
2023-10-10T07:36:38.204Z,3.70
2023-10-10T07:39:25.718Z,3.20
2023-10-10T07:41:53.892Z,3.70
2023-10-10T07:44:23.976Z,3.70
2023-10-10T07:47:10.119Z,3.60
2023-10-10T07:49:41.405Z,3.60
2023-10-10T07:52:17.734Z,3.50
2023-10-10T07:54:47.557Z,3.40
2023-10-10T07:57:23.838Z,3.70
2023-10-10T07:59:56.944Z,3.60
2023-10-10T08:02:30.753Z,3.70
2023-10-10T08:04:59.440Z,3.50
2023-10-10T08:07:27.529Z,3.50
2023-10-10T08:10:14.498Z,3.50
2023-10-10T08:12:42.574Z,3.40
2023-10-10T08:15:26.484Z,3.40
2023-10-10T08:17:55.456Z,3.40
2023-10-10T08:20:36.186Z,2.80
2023-10-10T08:23:04.815Z,3.10
2023-10-10T08:25:33.305Z,3.00
2023-10-10T08:28:01.189Z,2.80
2023-10-10T08:30:28.605Z,2.60
2023-10-10T08:32:56.920Z,2.70
2023-10-10T08:35:24.522Z,2.60
2023-10-10T08:37:52.138Z,2.40
2023-10-10T08:40:23.235Z,2.50
2023-10-10T08:42:51.507Z,2.30
2023-10-10T08:45:26.162Z,2.50
2023-10-10T08:48:02.982Z,2.40
2023-10-10T08:50:33.942Z,2.70
2023-10-10T08:53:01.497Z,2.20
2023-10-10T08:55:29.520Z,2.30
2023-10-10T08:57:57.576Z,2.40
2023-10-10T09:00:28.396Z,2.20
2023-10-10T09:02:56.625Z,2.00
2023-10-10T09:05:25.841Z,2.20
2023-10-10T09:07:56.564Z,2.00
2023-10-10T09:10:29.723Z,2.00
2023-10-10T09:12:57.731Z,2.10
2023-10-10T09:15:28.747Z,2.10
2023-10-10T09:18:18.855Z,1.80
2023-10-10T09:20:47.131Z,1.50
2023-10-10T09:23:28.029Z,1.70
2023-10-10T09:26:30.822Z,1.80
2023-10-10T09:29:00.140Z,2.10
2023-10-10T09:31:33.716Z,2.30
2023-10-10T09:34:05.039Z,1.80
2023-10-10T09:36:39.548Z,1.40
2023-10-10T09:39:10.167Z,1.20
2023-10-10T09:41:38.891Z,1.20
2023-10-10T09:44:23.181Z,1.10
2023-10-10T09:47:03.269Z,1.10
2023-10-10T09:49:41.676Z,1.40
2023-10-10T09:52:34.218Z,1.20
2023-10-10T09:55:08.848Z,1.40
2023-10-10T09:57:44.762Z,1.20
2023-10-10T10:00:26.922Z,1.10
2023-10-10T10:02:58.810Z,1.20
2023-10-10T10:05:30.140Z,1.30
2023-10-10T10:08:23.198Z,1.40
2023-10-10T10:10:57.906Z,1.10
2023-10-10T10:13:55.149Z,1.00
2023-10-10T10:17:13.622Z,1.10
2023-10-10T10:19:48.514Z,1.10
2023-10-10T10:22:20.253Z,1.10
2023-10-10T10:24:47.915Z,1.10
2023-10-10T10:27:32.660Z,1.00
2023-10-10T10:30:19.786Z,1.20
2023-10-10T10:32:50.663Z,1.10
2023-10-10T10:36:07.156Z,1.20
2023-10-10T10:38:35.615Z,1.40
2023-10-10T10:41:08.531Z,1.00
2023-10-10T10:43:43.850Z,1.20
2023-10-10T10:46:16.993Z,1.10
2023-10-10T10:48:56.018Z,1.30
2023-10-10T10:51:42.400Z,1.10
2023-10-10T10:54:10.513Z,1.10
2023-10-10T10:56:37.821Z,1.10
2023-10-10T10:59:15.390Z,1.00
2023-10-10T11:01:59.318Z,1.10
2023-10-10T11:07:27.756Z,1.10
2023-10-10T11:10:11.417Z,1.10
2023-10-10T11:12:38.795Z,1.00
2023-10-10T11:15:12.079Z,1.10
2023-10-10T11:17:40.415Z,1.00
2023-10-10T11:20:29.895Z,1.10
2023-10-10T11:23:08.161Z,1.20
2023-10-10T11:26:00.044Z,1.60
2023-10-10T11:28:48.732Z,1.10
2023-10-10T11:31:24.547Z,1.00
2023-10-10T11:34:12.100Z,1.10
2023-10-10T11:36:40.932Z,0.90
2023-10-10T11:39:33.196Z,1.00
2023-10-10T11:42:05.899Z,1.10
2023-10-10T11:44:34.693Z,1.00
2023-10-10T11:47:09.296Z,1.00
2023-10-10T11:49:36.730Z,1.00
2023-10-10T11:52:05.196Z,1.00
2023-10-10T11:54:32.638Z,1.20
2023-10-10T11:57:01.269Z,1.10
2023-10-10T11:59:29.310Z,1.30
2023-10-10T12:02:08.923Z,1.20
2023-10-10T12:04:38.748Z,1.00
2023-10-10T12:07:07.609Z,1.00
2023-10-10T12:09:35.246Z,1.00
2023-10-10T12:12:04.588Z,1.00
2023-10-10T12:14:33.381Z,1.00
2023-10-10T12:17:01.444Z,0.80
2023-10-10T12:19:37.493Z,0.90
2023-10-10T12:22:16.935Z,1.00
2023-10-10T12:24:44.561Z,0.90
2023-10-10T12:27:12.076Z,1.00
2023-10-10T12:29:41.243Z,1.00
2023-10-10T12:32:23.505Z,1.20
2023-10-10T12:34:51.723Z,0.90
2023-10-10T12:37:19.851Z,1.00
2023-10-10T12:39:47.750Z,1.30
2023-10-10T12:42:15.292Z,1.00
2023-10-10T12:44:49.896Z,1.80
2023-10-10T12:47:20.133Z,1.20
2023-10-10T12:49:47.850Z,1.20
2023-10-10T12:52:19.072Z,1.30
2023-10-10T12:54:48.570Z,1.10
2023-10-10T12:57:16.134Z,1.20
2023-10-10T12:59:49.681Z,1.20
2023-10-10T13:04:48.521Z,1.20
2023-10-10T13:07:17.742Z,1.30
2023-10-10T13:09:48.304Z,1.10
2023-10-10T13:12:27.791Z,1.10
2023-10-10T13:15:07.150Z,1.10
2023-10-10T13:17:51.331Z,1.10
2023-10-10T13:20:19.996Z,1.10
2023-10-10T13:22:51.749Z,1.20
2023-10-10T13:25:20.519Z,1.00
2023-10-10T13:27:48.094Z,1.00
2023-10-10T13:30:15.745Z,1.20
2023-10-10T13:32:44.194Z,1.20
2023-10-10T13:35:11.781Z,1.30
2023-10-10T13:37:44.586Z,1.20
2023-10-10T13:40:24.515Z,9.90
2023-10-10T13:42:51.970Z,15.60
2023-10-10T13:45:22.229Z,8.30
2023-10-10T13:47:49.853Z,5.00
2023-10-10T13:50:29.961Z,2.10
2023-10-10T13:52:58.419Z,2.60
2023-10-10T13:55:27.339Z,2.20
2023-10-10T13:57:54.929Z,3.10
2023-10-10T14:00:34.856Z,1.40
2023-10-10T14:03:05.398Z,1.10
2023-10-10T14:05:43.051Z,2.80
2023-10-10T14:08:19.023Z,10.80
2023-10-10T14:10:51.412Z,2.50
2023-10-10T14:13:21.884Z,1.50
2023-10-10T14:15:57.769Z,1.40
2023-10-10T14:18:29.083Z,4.80
2023-10-10T14:20:57.526Z,2.40
2023-10-10T14:23:26.237Z,3.00
2023-10-10T14:26:04.292Z,2.10
2023-10-10T14:28:33.420Z,4.40
2023-10-10T14:31:01.087Z,2.20
2023-10-10T14:33:28.812Z,1.70
2023-10-10T14:35:57.752Z,1.80
2023-10-10T14:38:25.196Z,1.70
2023-10-10T14:40:52.761Z,1.70
2023-10-10T14:43:20.993Z,1.70
2023-10-10T14:45:50.032Z,1.80
2023-10-10T14:48:20.481Z,1.50
2023-10-10T14:50:53.942Z,1.30
2023-10-10T14:53:23.859Z,1.60
2023-10-10T14:55:54.226Z,1.30
2023-10-10T14:58:24.471Z,1.30
2023-10-10T15:00:53.957Z,1.30
2023-10-10T15:03:21.501Z,1.40
2023-10-10T15:05:52.818Z,1.50
2023-10-10T15:08:21.657Z,1.40
2023-10-10T15:10:52.718Z,1.50
2023-10-10T15:13:20.353Z,1.60
2023-10-10T15:15:47.918Z,1.40
2023-10-10T15:18:18.924Z,1.30
2023-10-10T15:20:49.998Z,1.30
2023-10-10T15:24:13.226Z,1.60
2023-10-10T15:26:41.444Z,1.70
2023-10-10T15:29:14.227Z,1.60
2023-10-10T15:31:42.246Z,1.70
2023-10-10T15:34:14.897Z,1.70
2023-10-10T15:36:45.357Z,3.30
2023-10-10T15:39:13.030Z,9.80
2023-10-10T15:41:42.342Z,9.50
2023-10-10T15:44:13.571Z,5.50
2023-10-10T15:46:44.885Z,10.40
2023-10-10T15:51:46.346Z,7.30
2023-10-10T15:54:16.055Z,13.10
2023-10-10T15:56:44.157Z,19.20
2023-10-10T15:59:11.684Z,24.00
2023-10-10T16:01:39.282Z,26.20
2023-10-10T16:04:08.169Z,23.10
2023-10-10T16:06:36.142Z,23.90
2023-10-10T16:09:11.598Z,38.10
2023-10-10T16:11:41.599Z,28.10
2023-10-10T16:14:15.689Z,39.70
2023-10-10T16:16:46.579Z,28.40
2023-10-10T16:19:15.158Z,22.00
2023-10-10T16:21:43.434Z,25.80
2023-10-10T16:24:16.725Z,24.30
2023-10-10T16:26:45.049Z,19.60
2023-10-10T16:29:12.937Z,18.60
2023-10-10T16:31:45.082Z,13.80
2023-10-10T16:34:13.055Z,6.70
2023-10-10T16:36:40.451Z,4.30
2023-10-10T16:39:12.185Z,5.80
2023-10-10T16:41:39.795Z,14.20
2023-10-10T16:44:12.437Z,31.40
2023-10-10T16:46:42.157Z,24.60
2023-10-10T16:49:09.977Z,24.30
2023-10-10T16:51:37.449Z,13.30
2023-10-10T16:54:07.737Z,8.20
2023-10-10T16:56:35.903Z,6.50
2023-10-10T16:59:05.876Z,6.40
2023-10-10T17:01:33.781Z,10.60
2023-10-10T17:04:01.541Z,10.40
2023-10-10T17:06:32.529Z,8.70
2023-10-10T17:09:05.898Z,8.00
2023-10-10T17:11:33.648Z,10.00
2023-10-10T17:14:04.743Z,12.80
2023-10-10T17:16:34.277Z,12.80
2023-10-10T17:21:32.831Z,14.50
2023-10-10T17:24:02.800Z,12.70
2023-10-10T17:26:31.750Z,13.80
2023-10-10T17:29:00.798Z,26.30
2023-10-10T17:31:28.291Z,39.10
2023-10-10T17:33:57.055Z,38.20
2023-10-10T17:36:27.577Z,30.00
2023-10-10T17:38:55.929Z,25.00
2023-10-10T17:41:25.163Z,23.00
2023-10-10T17:43:53.627Z,22.20
2023-10-10T17:46:22.199Z,22.40
2023-10-10T17:48:55.419Z,20.50
2023-10-10T17:51:24.996Z,20.30
2023-10-10T17:53:58.562Z,19.70
2023-10-10T17:56:28.017Z,16.50
2023-10-10T17:58:55.801Z,17.80
2023-10-10T18:01:23.664Z,21.60
2023-10-10T18:03:55.241Z,19.70
2023-10-10T18:06:24.531Z,19.30
2023-10-10T18:08:56.890Z,14.50
2023-10-10T18:11:27.748Z,10.10
2023-10-10T18:13:55.399Z,9.90
2023-10-10T18:16:23.043Z,14.10
2023-10-10T18:18:52.983Z,19.40
2023-10-10T18:21:21.522Z,15.50
2023-10-10T18:23:48.889Z,18.00
2023-10-10T18:26:23.026Z,19.70
2023-10-10T18:28:53.085Z,18.30
2023-10-10T18:31:31.457Z,15.50
2023-10-10T18:33:59.096Z,11.00
2023-10-10T18:36:26.416Z,9.80
2023-10-10T18:38:55.081Z,9.10
2023-10-10T18:41:24.463Z,9.10
2023-10-10T18:43:55.505Z,9.80
2023-10-10T18:46:25.572Z,12.30
2023-10-10T18:48:53.322Z,12.30
2023-10-10T18:51:20.885Z,15.30
2023-10-10T18:53:49.061Z,17.60
2023-10-10T18:56:16.465Z,23.50
2023-10-10T18:58:43.729Z,27.40
2023-10-10T19:01:12.721Z,27.50
2023-10-10T19:03:49.160Z,24.30
2023-10-10T19:06:18.990Z,21.90
2023-10-10T19:08:49.620Z,21.90
2023-10-10T19:11:24.587Z,21.40
2023-10-10T19:13:52.161Z,22.60
2023-10-10T19:16:19.732Z,20.30
2023-10-10T19:18:47.439Z,17.80
2023-10-10T19:21:18.724Z,16.40
2023-10-10T19:23:51.426Z,16.30
2023-10-10T19:26:18.986Z,17.10
2023-10-10T19:28:54.138Z,16.00
2023-10-10T19:31:25.380Z,14.70
2023-10-10T19:33:52.813Z,12.50
2023-10-10T19:36:21.390Z,12.00
2023-10-10T19:38:49.227Z,11.70
2023-10-10T19:41:19.427Z,11.10
2023-10-10T19:43:46.979Z,10.20
2023-10-10T19:46:14.306Z,10.50
2023-10-10T19:48:42.322Z,10.70
2023-10-10T19:51:14.772Z,12.50
2023-10-10T19:53:42.109Z,14.70
2023-10-10T19:56:15.413Z,14.60
2023-10-10T19:58:43.173Z,13.50
2023-10-10T20:01:10.850Z,13.10
2023-10-10T20:03:42.775Z,11.90
2023-10-10T20:06:21.132Z,12.20
2023-10-10T20:08:49.708Z,11.30
2023-10-10T20:11:17.125Z,10.60
2023-10-10T20:13:44.573Z,10.10
2023-10-10T20:16:18.257Z,10.20
2023-10-10T20:18:46.393Z,10.60
2023-10-10T20:21:14.488Z,10.80
2023-10-10T20:23:43.367Z,12.90
2023-10-10T20:26:19.609Z,12.80
2023-10-10T20:28:48.999Z,13.00
2023-10-10T20:31:18.638Z,12.50
2023-10-10T20:33:48.533Z,12.80
2023-10-10T20:36:17.722Z,13.10
2023-10-10T20:38:45.589Z,14.30
2023-10-10T20:41:13.626Z,14.10
2023-10-10T20:43:41.866Z,13.50
2023-10-10T20:46:09.889Z,14.00
2023-10-10T20:48:37.517Z,12.90
2023-10-10T20:51:05.434Z,13.90
2023-10-10T20:53:33.097Z,14.20
2023-10-10T20:56:03.305Z,14.60
2023-10-10T20:58:33.210Z,14.70
2023-10-10T21:01:03.865Z,14.60
2023-10-10T21:03:31.369Z,15.30
2023-10-10T21:05:59.009Z,14.00
2023-10-10T21:08:27.144Z,13.20
2023-10-10T21:10:54.553Z,14.20
2023-10-10T21:13:22.699Z,14.90
2023-10-10T21:15:50.674Z,18.60
2023-10-10T21:18:19.751Z,20.60
2023-10-10T21:21:00.147Z,22.00
2023-10-10T21:23:31.418Z,21.70
2023-10-10T21:25:58.877Z,20.30
2023-10-10T21:28:26.485Z,22.60
2023-10-10T21:30:54.157Z,22.90
2023-10-10T21:33:21.816Z,23.50
2023-10-10T21:35:51.153Z,24.90
2023-10-10T21:38:21.757Z,25.50
2023-10-10T21:40:50.612Z,25.70
2023-10-10T21:43:18.076Z,27.90
2023-10-10T21:45:45.284Z,28.10
2023-10-10T21:48:12.679Z,24.90
2023-10-10T21:50:43.326Z,23.10
2023-10-10T21:53:10.811Z,22.80
2023-10-10T21:55:38.688Z,22.20
2023-10-10T21:58:06.708Z,22.40
2023-10-10T22:00:34.460Z,21.90
2023-10-10T22:03:08.552Z,21.00
2023-10-10T22:05:36.546Z,18.50
2023-10-10T22:08:08.032Z,18.50
2023-10-10T22:10:36.963Z,24.00
2023-10-10T22:13:07.791Z,21.10
2023-10-10T22:15:36.655Z,20.70
2023-10-10T22:18:05.875Z,21.30
2023-10-10T22:20:36.528Z,21.80
2023-10-10T22:23:07.023Z,20.10
2023-10-10T22:25:36.135Z,19.10
2023-10-10T22:28:05.573Z,16.90
2023-10-10T22:30:37.117Z,16.30
2023-10-10T22:33:05.687Z,16.40
2023-10-10T22:35:35.977Z,15.80
2023-10-10T22:38:06.969Z,15.10
2023-10-10T22:40:35.300Z,13.70
2023-10-10T22:43:04.830Z,14.50
2023-10-10T22:45:36.198Z,15.00
2023-10-10T22:48:05.158Z,15.30
2023-10-10T22:50:33.017Z,15.40
2023-10-10T22:53:05.022Z,15.40
2023-10-10T22:55:35.986Z,15.30
2023-10-10T22:58:08.031Z,14.60
2023-10-10T23:00:39.428Z,13.40
2023-10-10T23:03:11.586Z,12.40
2023-10-10T23:05:44.150Z,13.20
2023-10-10T23:08:13.073Z,13.40
2023-10-10T23:10:41.473Z,13.70
2023-10-10T23:13:09.005Z,14.40
2023-10-10T23:15:38.784Z,13.80
2023-10-10T23:18:11.793Z,13.50
2023-10-10T23:20:42.463Z,13.30
2023-10-10T23:23:12.065Z,12.90
2023-10-10T23:25:39.860Z,12.10
2023-10-10T23:28:09.524Z,11.50
2023-10-10T23:30:40.523Z,11.50
2023-10-10T23:33:13.176Z,11.40
2023-10-10T23:35:41.906Z,10.20
2023-10-10T23:38:10.756Z,11.20
2023-10-10T23:40:47.442Z,13.00
2023-10-10T23:43:22.904Z,15.30
2023-10-10T23:46:00.784Z,16.90
2023-10-10T23:48:32.067Z,15.50
2023-10-10T23:51:00.619Z,13.80
2023-10-10T23:53:28.356Z,14.90
2023-10-10T23:56:00.632Z,14.60
2023-10-10T23:58:30.559Z,12.20
